Time;durP1;ratioP1;P1;durP2;ratioP2;P2;SDS_P1;SDS_P2;PMS_P1;PMS_P2;Temp;Humidity;BMP_temperature;BMP_pressure;BME280_temperature;BME280_humidity;BME280_pressure;Samples;Min_cycle;Max_cycle;Signal;HPM_P1;HPM_P2
2024/01/01 00:01:10;;;;;;;76.07;38.50;;;;;;;;;;5114625;28;20130;-33
2024/01/01 00:03:36;;;;;;;72.27;36.93;;;;;;;;;;5114136;28;20752;-33
2024/01/01 00:06:02;;;;;;;70.28;34.00;;;;;;;;;;5114356;28;20266;-32
2024/01/01 00:08:27;;;;;;;74.90;38.65;;;;;;;;;;5114347;28;20027;-33
2024/01/01 00:10:52;;;;;;;62.97;31.70;;;;;;;;;;5114642;28;20022;-33
2024/01/01 00:13:18;;;;;;;52.78;26.45;;;;;;;;;;5114637;28;20355;-32
2024/01/01 00:15:43;;;;;;;48.78;22.63;;;;;;;;;;5114631;28;20012;-32
2024/01/01 00:18:08;;;;;;;52.33;24.85;;;;;;;;;;5114323;28;20466;-32
2024/01/01 00:20:33;;;;;;;44.90;21.90;;;;;;;;;;5114366;28;20026;-33
2024/01/01 00:22:58;;;;;;;38.37;17.70;;;;;;;;;;5114183;28;20332;-33
2024/01/01 00:25:23;;;;;;;41.10;20.47;;;;;;;;;;5114442;28;20254;-33
2024/01/01 00:27:49;;;;;;;35.00;18.30;;;;;;;;;;5114471;28;20653;-32
2024/01/01 00:30:14;;;;;;;38.17;20.47;;;;;;;;;;5114152;28;20126;-32
2024/01/01 00:32:39;;;;;;;36.05;19.08;;;;;;;;;;5114265;28;20258;-32
2024/01/01 00:35:04;;;;;;;34.20;16.80;;;;;;;;;;5114575;28;20024;-33
2024/01/01 00:37:30;;;;;;;33.88;15.55;;;;;;;;;;5114246;28;20091;-32
2024/01/01 00:39:55;;;;;;;38.87;16.30;;;;;;;;;;5114210;28;20015;-32
2024/01/01 00:42:20;;;;;;;34.15;17.02;;;;;;;;;;5113861;28;20727;-33
2024/01/01 00:44:45;;;;;;;28.33;14.48;;;;;;;;;;5113794;28;20024;-33
2024/01/01 00:47:11;;;;;;;33.78;16.73;;;;;;;;;;5113850;28;20012;-32
2024/01/01 00:49:36;;;;;;;32.42;16.25;;;;;;;;;;5113876;28;20086;-33
2024/01/01 00:52:01;;;;;;;31.60;16.55;;;;;;;;;;5114581;28;20094;-32
2024/01/01 00:54:28;;;;;;;30.50;12.97;;;;;;;;;;5113841;28;20100;-32
2024/01/01 00:56:54;;;;;;;25.98;12.38;;;;;;;;;;5114137;28;20808;-33
2024/01/01 00:59:19;;;;;;;26.67;12.30;;;;;;;;;;5113649;28;20051;-32
2024/01/01 01:01:44;;;;;;;22.45;12.13;;;;;;;;;;5114293;28;20114;-33
2024/01/01 01:04:09;;;;;;;26.60;11.23;;;;;;;;;;5113921;28;20076;-32
2024/01/01 01:06:35;;;;;;;31.17;12.23;;;;;;;;;;5095419;28;20016;-33
2024/01/01 01:09:00;;;;;;;23.00;10.88;;;;;;;;;;5113991;28;20621;-33
2024/01/01 01:11:25;;;;;;;25.07;10.10;;;;;;;;;;5113641;28;20412;-32
2024/01/01 01:13:50;;;;;;;15.70;7.70;;;;;;;;;;5113850;28;20293;-33
2024/01/01 01:16:17;;;;;;;19.00;7.93;;;;;;;;;;5097242;28;20756;-33
2024/01/01 01:18:42;;;;;;;18.35;7.20;;;;;;;;;;5118020;28;20273;-33
2024/01/01 01:21:09;;;;;;;20.90;9.93;;;;;;;;;;5117653;28;20046;-33
2024/01/01 01:23:34;;;;;;;18.85;7.82;;;;;;;;;;5117796;28;20104;-32
2024/01/01 01:25:59;;;;;;;14.10;6.20;;;;;;;;;;5117755;28;20344;-33
2024/01/01 01:28:24;;;;;;;22.83;5.90;;;;;;;;;;5117566;28;20268;-32
2024/01/01 01:30:50;;;;;;;16.60;6.65;;;;;;;;;;5117736;28;20728;-33
2024/01/01 01:33:15;;;;;;;12.10;5.35;;;;;;;;;;5117443;28;20072;-32
2024/01/01 01:35:41;;;;;;;13.65;5.55;;;;;;;;;;5117377;28;20439;-33
2024/01/01 01:38:06;;;;;;;9.90;4.47;;;;;;;;;;5117890;28;20026;-32
2024/01/01 01:40:32;;;;;;;17.77;6.37;;;;;;;;;;5117621;28;20254;-33
2024/01/01 01:42:57;;;;;;;13.90;5.53;;;;;;;;;;5117452;28;20293;-33
2024/01/01 01:45:23;;;;;;;17.80;5.43;;;;;;;;;;5117414;28;20145;-33
2024/01/01 01:47:48;;;;;;;14.18;5.03;;;;;;;;;;5117399;28;20263;-32
2024/01/01 01:50:14;;;;;;;19.95;4.90;;;;;;;;;;5117234;28;20099;-33
2024/01/01 01:52:39;;;;;;;12.27;4.43;;;;;;;;;;5117093;28;20024;-33
2024/01/01 01:55:05;;;;;;;14.05;4.93;;;;;;;;;;5117245;28;20020;-32
2024/01/01 01:57:30;;;;;;;18.83;5.15;;;;;;;;;;5117102;28;20030;-33
2024/01/01 01:59:55;;;;;;;15.93;4.95;;;;;;;;;;5098456;28;20047;-32
2024/01/01 02:02:23;;;;;;;20.65;5.30;;;;;;;;;;5116877;28;20035;-33
2024/01/01 02:04:49;;;;;;;16.95;5.03;;;;;;;;;;5117074;28;20027;-32
2024/01/01 02:07:14;;;;;;;19.13;5.32;;;;;;;;;;5116809;28;20096;-33
2024/01/01 02:09:39;;;;;;;16.63;5.77;;;;;;;;;;5117373;28;20049;-32
2024/01/01 02:12:05;;;;;;;15.07;5.95;;;;;;;;;;5116926;28;20245;-32
2024/01/01 02:14:31;;;;;;;18.45;6.50;;;;;;;;;;5116995;28;20020;-33
2024/01/01 02:16:56;;;;;;;15.57;4.77;;;;;;;;;;5116622;28;20519;-33
2024/01/01 02:19:22;;;;;;;11.07;3.67;;;;;;;;;;5117169;28;20325;-32
2024/01/01 02:21:49;;;;;;;16.33;3.13;;;;;;;;;;5116496;28;20318;-33
2024/01/01 02:24:15;;;;;;;16.50;3.55;;;;;;;;;;5117007;28;20024;-33
2024/01/01 02:26:41;;;;;;;10.63;3.58;;;;;;;;;;5116694;28;20011;-33
2024/01/01 02:29:06;;;;;;;10.27;3.00;;;;;;;;;;5116412;28;20068;-32
2024/01/01 02:31:31;;;;;;;17.00;3.23;;;;;;;;;;5116336;28;20020;-33
2024/01/01 02:33:56;;;;;;;8.80;2.73;;;;;;;;;;5116668;28;20249;-33
2024/01/01 02:36:23;;;;;;;8.23;3.17;;;;;;;;;;5116246;28;20261;-33
2024/01/01 02:38:48;;;;;;;13.55;3.65;;;;;;;;;;5116549;28;20260;-32
2024/01/01 02:41:13;;;;;;;9.90;3.33;;;;;;;;;;5116195;28;20405;-32
2024/01/01 02:43:38;;;;;;;12.30;3.37;;;;;;;;;;5116371;28;20338;-33
2024/01/01 02:46:03;;;;;;;7.00;2.87;;;;;;;;;;5116114;28;20692;-33
2024/01/01 02:48:28;;;;;;;7.97;2.95;;;;;;;;;;5116305;28;20265;-32
2024/01/01 02:50:54;;;;;;;10.43;3.40;;;;;;;;;;5116023;28;20051;-32
2024/01/01 02:53:19;;;;;;;20.85;9.02;;;;;;;;;;5115848;28;20261;-32
2024/01/01 02:55:44;;;;;;;12.33;3.23;;;;;;;;;;5116411;28;20028;-32
2024/01/01 02:58:09;;;;;;;15.40;5.45;;;;;;;;;;5115828;28;20295;-32
2024/01/01 03:00:35;;;;;;;12.55;3.83;;;;;;;;;;5115758;28;20047;-33
2024/01/01 03:03:00;;;;;;;15.73;3.40;;;;;;;;;;5115792;28;20020;-33
2024/01/01 03:05:27;;;;;;;13.00;3.77;;;;;;;;;;5115667;28;20292;-32
2024/01/01 03:07:52;;;;;;;11.02;3.65;;;;;;;;;;5097394;28;20269;-32
2024/01/01 03:10:17;;;;;;;13.87;3.70;;;;;;;;;;5115614;28;20044;-33
2024/01/01 03:12:43;;;;;;;20.55;4.25;;;;;;;;;;5115728;28;20268;-33
2024/01/01 03:15:08;;;;;;;18.33;3.25;;;;;;;;;;5115377;28;20012;-32
2024/01/01 03:17:33;;;;;;;12.55;3.15;;;;;;;;;;5115229;28;20031;-33
2024/01/01 03:19:58;;;;;;;18.27;3.53;;;;;;;;;;5116110;28;20026;-32
2024/01/01 03:22:24;;;;;;;17.33;3.60;;;;;;;;;;5115242;28;20681;-32
2024/01/01 03:24:49;;;;;;;15.73;3.15;;;;;;;;;;5115459;28;20474;-32
2024/01/01 03:27:14;;;;;;;13.60;3.38;;;;;;;;;;5115774;28;20019;-32
2024/01/01 03:29:39;;;;;;;15.83;2.97;;;;;;;;;;5115719;28;20016;-32
2024/01/01 03:32:04;;;;;;;17.70;3.63;;;;;;;;;;5115742;28;20307;-32
2024/01/01 03:34:32;;;;;;;17.33;3.35;;;;;;;;;;5114971;28;20019;-32
2024/01/01 03:36:58;;;;;;;17.63;3.63;;;;;;;;;;5115302;28;20462;-32
2024/01/01 03:39:23;;;;;;;13.87;2.80;;;;;;;;;;5114321;28;20041;-33
2024/01/01 03:41:48;;;;;;;17.10;3.22;;;;;;;;;;5115260;28;20265;-32
2024/01/01 03:44:14;;;;;;;16.70;2.97;;;;;;;;;;5115198;28;20016;-32
2024/01/01 03:46:39;;;;;;;13.02;3.03;;;;;;;;;;5115109;28;20268;-32
2024/01/01 03:49:04;;;;;;;17.63;3.20;;;;;;;;;;5114839;28;20390;-32
2024/01/01 03:51:29;;;;;;;14.37;4.00;;;;;;;;;;5115320;28;20246;-33
2024/01/01 03:53:55;;;;;;;21.65;3.70;;;;;;;;;;5115051;28;20350;-31
2024/01/01 03:56:21;;;;;;;15.20;3.95;;;;;;;;;;5115036;28;20016;-32
2024/01/01 03:58:46;;;;;;;20.83;3.63;;;;;;;;;;5114639;28;20022;-32
2024/01/01 04:01:13;;;;;;;14.80;3.53;;;;;;;;;;5114591;28;20342;-33
2024/01/01 04:03:38;;;;;;;20.08;3.80;;;;;;;;;;5115052;28;20297;-32
2024/01/01 04:06:03;;;;;;;15.13;3.95;;;;;;;;;;5114523;28;20020;-32
2024/01/01 04:08:28;;;;;;;23.48;3.42;;;;;;;;;;5114463;28;20015;-32
2024/01/01 04:10:53;;;;;;;14.07;3.07;;;;;;;;;;5114758;28;20066;-32
2024/01/01 04:13:18;;;;;;;22.97;3.30;;;;;;;;;;5114314;28;20322;-33
2024/01/01 04:15:44;;;;;;;18.83;3.33;;;;;;;;;;5114386;28;20600;-32
2024/01/01 04:18:09;;;;;;;11.45;2.92;;;;;;;;;;5114273;28;20253;-32
2024/01/01 04:20:34;;;;;;;16.37;3.03;;;;;;;;;;5114881;28;20102;-32
2024/01/01 04:22:59;;;;;;;34.40;3.93;;;;;;;;;;5114252;28;20241;-31
2024/01/01 04:25:25;;;;;;;19.23;3.70;;;;;;;;;;5114193;28;20281;-32
2024/01/01 04:27:51;;;;;;;16.08;3.28;;;;;;;;;;5114447;28;20255;-32
2024/01/01 04:30:16;;;;;;;12.90;3.03;;;;;;;;;;5114449;28;20099;-32
2024/01/01 04:32:41;;;;;;;17.30;3.15;;;;;;;;;;5114533;28;20019;-31
2024/01/01 04:35:06;;;;;;;17.70;3.30;;;;;;;;;;5114173;28;20018;-32
2024/01/01 04:37:31;;;;;;;21.48;3.20;;;;;;;;;;5114599;28;20028;-31
2024/01/01 04:39:57;;;;;;;16.00;2.47;;;;;;;;;;5114308;28;20112;-32
2024/01/01 04:42:22;;;;;;;20.38;2.97;;;;;;;;;;5113996;28;20293;-33
2024/01/01 04:44:47;;;;;;;19.38;2.97;;;;;;;;;;5113976;28;20118;-32
2024/01/01 04:47:13;;;;;;;15.93;2.50;;;;;;;;;;5113975;28;20086;-33
2024/01/01 04:49:40;;;;;;;19.15;3.55;;;;;;;;;;5113802;28;20302;-32
2024/01/01 04:52:05;;;;;;;17.08;3.10;;;;;;;;;;5114153;28;20055;-32
2024/01/01 04:54:30;;;;;;;20.90;3.78;;;;;;;;;;5114145;28;20048;-32
2024/01/01 04:56:56;;;;;;;16.10;3.43;;;;;;;;;;5114223;28;20076;-33
2024/01/01 04:59:21;;;;;;;16.97;3.10;;;;;;;;;;5113696;28;20284;-31
2024/01/01 05:01:46;;;;;;;16.53;3.53;;;;;;;;;;5114352;28;20337;-33
2024/01/01 05:04:11;;;;;;;15.25;3.25;;;;;;;;;;5113673;28;20296;-32
2024/01/01 05:06:36;;;;;;;15.32;2.85;;;;;;;;;;5114359;28;20047;-33
2024/01/01 05:09:02;;;;;;;13.90;2.90;;;;;;;;;;5114338;28;20039;-32
2024/01/01 05:11:29;;;;;;;18.50;3.10;;;;;;;;;;5113962;28;20249;-32
2024/01/01 05:13:54;;;;;;;15.90;3.10;;;;;;;;;;5113716;28;20113;-33
2024/01/01 05:16:19;;;;;;;18.75;3.08;;;;;;;;;;5113903;28;20445;-32
2024/01/01 05:18:44;;;;;;;14.93;3.17;;;;;;;;;;5113663;28;20484;-32
2024/01/01 05:21:09;;;;;;;15.80;3.20;;;;;;;;;;5114228;28;20249;-33
2024/01/01 05:23:35;;;;;;;12.40;2.90;;;;;;;;;;5113839;28;20285;-33
2024/01/01 05:26:00;;;;;;;18.30;2.97;;;;;;;;;;5114128;28;20326;-33
2024/01/01 05:28:25;;;;;;;11.85;2.97;;;;;;;;;;5095355;28;20268;-32
2024/01/01 05:30:50;;;;;;;18.07;3.70;;;;;;;;;;5114139;28;20027;-32
2024/01/01 05:33:15;;;;;;;18.70;3.93;;;;;;;;;;5113535;28;20262;-33
2024/01/01 05:35:41;;;;;;;14.18;2.92;;;;;;;;;;5113779;28;20253;-32
2024/01/01 05:38:06;;;;;;;17.42;3.13;;;;;;;;;;5113465;28;20023;-33
2024/01/01 05:40:31;;;;;;;19.27;3.30;;;;;;;;;;5113703;28;20011;-32
2024/01/01 05:42:56;;;;;;;14.37;3.40;;;;;;;;;;5114017;28;20249;-32
2024/01/01 05:45:21;;;;;;;12.20;3.07;;;;;;;;;;5113373;28;20277;-32
2024/01/01 05:47:46;;;;;;;15.20;3.03;;;;;;;;;;5113592;28;20261;-33
2024/01/01 05:50:11;;;;;;;15.93;3.53;;;;;;;;;;5095086;28;20088;-33
2024/01/01 05:52:37;;;;;;;15.80;3.63;;;;;;;;;;5113858;28;20253;-32
2024/01/01 05:55:02;;;;;;;17.52;3.00;;;;;;;;;;5113586;28;20728;-33
2024/01/01 05:57:27;;;;;;;12.38;3.30;;;;;;;;;;5113860;28;20451;-33
2024/01/01 05:59:52;;;;;;;16.80;3.10;;;;;;;;;;5113532;28;20093;-32
2024/01/01 06:02:18;;;;;;;24.33;4.13;;;;;;;;;;5115320;28;20649;-33
2024/01/01 06:04:43;;;;;;;19.80;3.50;;;;;;;;;;5116867;28;20059;-32
2024/01/01 06:07:08;;;;;;;16.02;4.43;;;;;;;;;;5116883;28;20258;-32
2024/01/01 06:09:34;;;;;;;20.33;3.50;;;;;;;;;;5117396;28;20129;-33
2024/01/01 06:11:59;;;;;;;19.42;3.03;;;;;;;;;;5116965;28;20676;-33
2024/01/01 06:14:24;;;;;;;18.13;3.30;;;;;;;;;;5116742;28;20019;-32
2024/01/01 06:16:49;;;;;;;15.45;2.80;;;;;;;;;;5116742;28;20020;-32
2024/01/01 06:19:15;;;;;;;14.30;3.13;;;;;;;;;;5117220;28;20027;-32
2024/01/01 06:21:40;;;;;;;16.53;2.57;;;;;;;;;;5116675;28;20269;-32
2024/01/01 06:24:05;;;;;;;13.37;2.80;;;;;;;;;;5098180;28;20348;-32
2024/01/01 06:26:30;;;;;;;20.08;2.95;;;;;;;;;;5116845;28;20253;-32
2024/01/01 06:28:56;;;;;;;26.30;2.93;;;;;;;;;;5116782;28;20408;-32
2024/01/01 06:31:21;;;;;;;20.40;3.40;;;;;;;;;;5116196;28;20293;-32
2024/01/01 06:33:46;;;;;;;12.67;2.73;;;;;;;;;;5116373;28;20719;-32
2024/01/01 06:36:11;;;;;;;12.23;2.78;;;;;;;;;;5116599;28;20308;-32
2024/01/01 06:38:36;;;;;;;11.40;2.33;;;;;;;;;;5116285;28;20019;-32
2024/01/01 06:41:02;;;;;;;9.00;1.95;;;;;;;;;;5116771;28;20075;-32
2024/01/01 06:43:27;;;;;;;12.20;2.55;;;;;;;;;;5116375;28;20027;-33
2024/01/01 06:45:52;;;;;;;14.77;2.55;;;;;;;;;;5116260;28;20374;-33
2024/01/01 06:48:17;;;;;;;15.70;2.30;;;;;;;;;;5116091;28;20450;-32
2024/01/01 06:50:43;;;;;;;15.97;2.80;;;;;;;;;;5116014;28;20345;-32
2024/01/01 06:53:08;;;;;;;17.58;2.90;;;;;;;;;;5116300;28;20765;-32
2024/01/01 06:55:33;;;;;;;10.77;3.10;;;;;;;;;;5116337;28;20149;-32
2024/01/01 06:57:59;;;;;;;13.98;2.70;;;;;;;;;;5116148;28;20019;-33
2024/01/01 07:00:24;;;;;;;16.02;2.95;;;;;;;;;;5115893;28;20040;-32
2024/01/01 07:02:50;;;;;;;16.27;2.75;;;;;;;;;;5116115;28;20031;-33
2024/01/01 07:05:15;;;;;;;12.05;2.72;;;;;;;;;;5115942;28;20112;-32
2024/01/01 07:07:40;;;;;;;15.07;2.60;;;;;;;;;;5115777;28;20470;-32
2024/01/01 07:10:05;;;;;;;14.43;2.50;;;;;;;;;;5116307;28;20054;-33
2024/01/01 07:12:30;;;;;;;18.48;2.40;;;;;;;;;;5115149;28;20616;-32
2024/01/01 07:14:56;;;;;;;15.63;3.20;;;;;;;;;;5115079;28;20072;-32
2024/01/01 07:17:21;;;;;;;16.63;2.45;;;;;;;;;;5115770;28;20286;-32
2024/01/01 07:19:47;;;;;;;16.98;2.72;;;;;;;;;;5115747;28;20374;-32
2024/01/01 07:22:12;;;;;;;18.30;2.78;;;;;;;;;;5115461;28;20058;-32
2024/01/01 07:24:37;;;;;;;13.38;2.60;;;;;;;;;;5115577;28;20011;-33
2024/01/01 07:27:03;;;;;;;16.50;2.65;;;;;;;;;;5115846;28;20537;-32
2024/01/01 07:29:30;;;;;;;14.02;2.55;;;;;;;;;;5115210;28;20370;-32
2024/01/01 07:31:55;;;;;;;22.10;2.88;;;;;;;;;;5115450;28;20012;-33
2024/01/01 07:34:20;;;;;;;12.70;2.10;;;;;;;;;;5115222;28;20496;-33
2024/01/01 07:36:46;;;;;;;12.27;2.33;;;;;;;;;;5115130;28;20253;-32
2024/01/01 07:39:12;;;;;;;10.52;1.98;;;;;;;;;;5115346;28;20020;-33
2024/01/01 07:41:37;;;;;;;16.92;2.47;;;;;;;;;;5115301;28;20038;-32
2024/01/01 07:44:03;;;;;;;9.60;2.08;;;;;;;;;;5115133;28;20012;-33
2024/01/01 07:46:28;;;;;;;19.52;2.63;;;;;;;;;;5114862;28;20374;-33
2024/01/01 07:48:55;;;;;;;13.20;2.50;;;;;;;;;;5115511;28;20050;-32
2024/01/01 07:51:20;;;;;;;13.10;2.70;;;;;;;;;;5115062;28;20257;-33
2024/01/01 07:53:45;;;;;;;9.23;1.87;;;;;;;;;;5114828;28;20016;-33
2024/01/01 07:56:10;;;;;;;12.37;2.00;;;;;;;;;;5115303;28;20263;-33
2024/01/01 07:58:36;;;;;;;12.35;2.13;;;;;;;;;;5114715;28;20258;-33
2024/01/01 08:01:01;;;;;;;12.63;2.40;;;;;;;;;;5114523;28;20091;-32
2024/01/01 08:03:26;;;;;;;10.20;1.92;;;;;;;;;;5114552;28;20027;-33
2024/01/01 08:05:52;;;;;;;7.63;2.13;;;;;;;;;;5115654;28;20015;-33
2024/01/01 08:08:17;;;;;;;15.93;2.40;;;;;;;;;;5114760;28;20273;-33
2024/01/01 08:10:43;;;;;;;9.77;1.98;;;;;;;;;;5114511;28;20066;-33
2024/01/01 08:13:08;;;;;;;12.43;2.55;;;;;;;;;;5114656;28;20019;-33
2024/01/01 08:15:33;;;;;;;16.45;3.00;;;;;;;;;;5114537;28;20016;-33
2024/01/01 08:17:58;;;;;;;11.00;2.13;;;;;;;;;;5114280;28;20480;-33
2024/01/01 08:20:24;;;;;;;12.80;2.30;;;;;;;;;;5114851;28;20340;-33
2024/01/01 08:22:49;;;;;;;13.63;2.03;;;;;;;;;;5114287;28;20299;-33
2024/01/01 08:25:14;;;;;;;11.07;2.20;;;;;;;;;;5114179;28;20393;-33
2024/01/01 08:27:39;;;;;;;10.90;2.30;;;;;;;;;;5114272;28;20560;-33
2024/01/01 08:30:06;;;;;;;12.00;2.10;;;;;;;;;;5114780;28;20254;-34
2024/01/01 08:32:31;;;;;;;10.60;1.90;;;;;;;;;;5114073;28;20265;-33
2024/01/01 08:34:57;;;;;;;7.50;1.70;;;;;;;;;;5114686;28;20012;-32
2024/01/01 08:37:22;;;;;;;11.83;2.10;;;;;;;;;;5114611;28;20080;-32
2024/01/01 08:39:47;;;;;;;14.50;2.33;;;;;;;;;;5114561;28;20241;-33
2024/01/01 08:42:12;;;;;;;13.35;2.35;;;;;;;;;;5114382;28;20265;-32
2024/01/01 08:44:38;;;;;;;20.13;2.60;;;;;;;;;;5114456;28;20034;-33
2024/01/01 08:47:04;;;;;;;10.23;1.67;;;;;;;;;;5113961;28;20310;-34
2024/01/01 08:49:29;;;;;;;10.35;1.80;;;;;;;;;;5114187;28;20016;-33
2024/01/01 08:51:54;;;;;;;15.27;2.20;;;;;;;;;;5114183;28;20050;-33
2024/01/01 08:54:20;;;;;;;8.20;2.20;;;;;;;;;;5114217;28;20604;-32
2024/01/01 08:56:45;;;;;;;9.40;1.90;;;;;;;;;;5113931;28;20381;-33
2024/01/01 08:59:11;;;;;;;11.55;2.58;;;;;;;;;;5114317;28;20310;-32
2024/01/01 09:01:36;;;;;;;11.60;2.13;;;;;;;;;;5113318;28;20077;-33
2024/01/01 09:04:04;;;;;;;11.68;2.10;;;;;;;;;;5113580;28;20523;-33
2024/01/01 09:06:30;;;;;;;8.13;1.80;;;;;;;;;;5113583;28;20016;-32
2024/01/01 09:08:55;;;;;;;10.07;2.15;;;;;;;;;;5113806;28;20022;-32
2024/01/01 09:11:20;;;;;;;12.75;2.33;;;;;;;;;;5113527;28;20050;-32
2024/01/01 09:13:45;;;;;;;8.98;2.17;;;;;;;;;;5113972;28;20028;-33
2024/01/01 09:16:10;;;;;;;7.47;1.80;;;;;;;;;;5114325;28;20061;-33
2024/01/01 09:18:36;;;;;;;19.30;2.50;;;;;;;;;;5113652;28;20628;-33
2024/01/01 09:21:01;;;;;;;9.93;1.90;;;;;;;;;;5113938;28;20257;-33
2024/01/01 09:23:27;;;;;;;12.10;2.47;;;;;;;;;;5114133;28;20024;-33
2024/01/01 09:25:54;;;;;;;10.27;2.25;;;;;;;;;;5113614;28;20019;-32
2024/01/01 09:28:19;;;;;;;12.15;2.35;;;;;;;;;;5113857;28;20036;-33
2024/01/01 09:30:45;;;;;;;11.53;1.87;;;;;;;;;;5113954;28;20094;-33
2024/01/01 09:33:10;;;;;;;8.35;1.63;;;;;;;;;;5113865;28;20289;-33
2024/01/01 09:35:36;;;;;;;9.67;1.70;;;;;;;;;;5114151;28;20051;-33
2024/01/01 09:38:03;;;;;;;9.70;1.70;;;;;;;;;;5116957;28;20257;-33
2024/01/01 09:40:28;;;;;;;8.07;1.25;;;;;;;;;;5117700;28;20754;-33
2024/01/01 09:42:53;;;;;;;10.95;1.75;;;;;;;;;;5117452;28;20020;-33
2024/01/01 09:45:18;;;;;;;10.82;1.50;;;;;;;;;;5117379;28;20011;-32
2024/01/01 09:47:44;;;;;;;5.80;1.42;;;;;;;;;;5117229;28;20022;-33
2024/01/01 09:50:09;;;;;;;9.20;1.67;;;;;;;;;;5117478;28;20095;-32
2024/01/01 09:52:35;;;;;;;10.35;1.80;;;;;;;;;;5117496;28;20019;-32
2024/01/01 09:55:00;;;;;;;8.27;1.80;;;;;;;;;;5117444;28;20023;-33
2024/01/01 09:57:26;;;;;;;5.28;1.50;;;;;;;;;;5117168;28;20027;-32
2024/01/01 09:59:51;;;;;;;15.02;2.20;;;;;;;;;;5116897;28;20079;-32
2024/01/01 10:02:16;;;;;;;6.50;1.35;;;;;;;;;;5116997;28;20051;-33
2024/01/01 10:04:42;;;;;;;8.38;1.42;;;;;;;;;;5117133;28;20019;-32
2024/01/01 10:07:08;;;;;;;7.82;1.45;;;;;;;;;;5117266;28;20016;-32
2024/01/01 10:09:39;;;;;;;4.20;1.10;;;;;;;;;;5116851;28;20099;-33
2024/01/01 10:12:09;;;;;;;7.63;1.42;;;;;;;;;;5117460;28;20374;-32
2024/01/01 10:14:42;;;;;;;10.02;1.50;;;;;;;;;;5116934;28;20011;-33
2024/01/01 10:17:12;;;;;;;10.93;1.63;;;;;;;;;;5116859;28;20015;-32
2024/01/01 10:19:56;;;;;;;7.22;1.40;;;;;;;;;;5116782;28;20020;-33
2024/01/01 10:22:23;;;;;;;7.93;2.10;;;;;;;;;;5098478;28;20023;-33
2024/01/01 10:24:49;;;;;;;12.13;1.88;;;;;;;;;;5116652;28;20023;-33
2024/01/01 10:27:18;;;;;;;10.10;1.50;;;;;;;;;;5116949;28;20015;-33
2024/01/01 10:29:44;;;;;;;10.25;1.58;;;;;;;;;;5116503;28;20015;-32
2024/01/01 10:32:09;;;;;;;11.20;1.67;;;;;;;;;;5117116;28;20019;-32
2024/01/01 10:34:36;;;;;;;9.88;1.77;;;;;;;;;;5116444;28;20033;-33
2024/01/01 10:37:01;;;;;;;11.07;1.90;;;;;;;;;;5116687;28;20028;-32
2024/01/01 10:39:27;;;;;;;13.93;2.10;;;;;;;;;;5116425;28;20023;-33
2024/01/01 10:41:52;;;;;;;7.20;1.55;;;;;;;;;;5117154;28;20020;-33
2024/01/01 10:44:18;;;;;;;14.07;1.73;;;;;;;;;;5116182;28;20091;-33
2024/01/01 10:46:46;;;;;;;8.55;2.00;;;;;;;;;;5098030;28;20019;-33
2024/01/01 10:49:20;;;;;;;15.32;2.13;;;;;;;;;;5116357;28;20061;-32
2024/01/01 10:52:04;;;;;;;12.73;1.85;;;;;;;;;;5116460;28;20015;-33
2024/01/01 10:54:46;;;;;;;13.85;1.80;;;;;;;;;;5116346;28;20531;-33
2024/01/01 10:57:15;;;;;;;10.20;1.90;;;;;;;;;;5116424;28;20016;-33
2024/01/01 10:59:46;;;;;;;9.85;2.00;;;;;;;;;;5116014;28;20482;-32
2024/01/01 11:02:11;;;;;;;10.88;1.50;;;;;;;;;;5116159;28;20073;-33
2024/01/01 11:04:37;;;;;;;7.70;1.50;;;;;;;;;;5115651;28;20020;-32
2024/01/01 11:07:02;;;;;;;9.18;1.70;;;;;;;;;;5116074;28;20023;-33
2024/01/01 11:09:27;;;;;;;11.35;2.03;;;;;;;;;;5115746;28;20019;-33
2024/01/01 11:11:53;;;;;;;11.30;2.08;;;;;;;;;;5116064;28;20434;-33
2024/01/01 11:14:25;;;;;;;8.85;2.20;;;;;;;;;;5115613;28;20462;-33
2024/01/01 11:16:51;;;;;;;10.65;1.83;;;;;;;;;;5115807;28;20019;-33
2024/01/01 11:19:34;;;;;;;9.95;1.73;;;;;;;;;;5115437;28;20034;-33
2024/01/01 11:22:19;;;;;;;16.52;1.55;;;;;;;;;;5115514;28;20027;-33
2024/01/01 11:24:45;;;;;;;8.50;1.83;;;;;;;;;;5115508;28;20025;-32
2024/01/01 11:27:26;;;;;;;9.25;1.95;;;;;;;;;;5115484;28;20106;-33
2024/01/01 11:29:51;;;;;;;12.85;1.98;;;;;;;;;;5115667;28;20007;-33
2024/01/01 11:32:17;;;;;;;12.02;1.77;;;;;;;;;;5115643;28;20331;-33
2024/01/01 11:34:42;;;;;;;12.90;1.90;;;;;;;;;;5115504;28;20516;-34
2024/01/01 11:37:08;;;;;;;12.47;1.97;;;;;;;;;;5115544;28;20127;-32
2024/01/01 11:39:33;;;;;;;11.33;2.27;;;;;;;;;;5115518;28;20257;-33
2024/01/01 11:41:58;;;;;;;8.18;2.13;;;;;;;;;;5115183;28;20269;-32
2024/01/01 11:44:25;;;;;;;18.03;2.37;;;;;;;;;;5115639;28;20019;-33
2024/01/01 11:46:51;;;;;;;12.45;2.30;;;;;;;;;;5115309;28;20728;-33
2024/01/01 11:49:17;;;;;;;8.23;1.73;;;;;;;;;;5115180;28;20485;-33
2024/01/01 11:51:57;;;;;;;13.40;1.90;;;;;;;;;;5115312;28;20016;-33
2024/01/01 11:54:26;;;;;;;11.30;2.08;;;;;;;;;;5114878;28;20056;-32
2024/01/01 11:56:54;;;;;;;10.00;2.20;;;;;;;;;;5115016;28;20037;-33
2024/01/01 11:59:21;;;;;;;18.48;3.08;;;;;;;;;;5114051;28;20052;-32
2024/01/01 12:01:47;;;;;;;8.70;1.80;;;;;;;;;;5115085;28;20359;-33
2024/01/01 12:04:12;;;;;;;18.08;2.03;;;;;;;;;;5114729;28;20030;-32
2024/01/01 12:06:37;;;;;;;12.50;1.95;;;;;;;;;;5114978;28;20028;-33
2024/01/01 12:09:10;;;;;;;15.65;2.17;;;;;;;;;;5114665;28;20019;-33
2024/01/01 12:11:38;;;;;;;10.77;2.38;;;;;;;;;;5114720;28;20027;-33
2024/01/01 12:14:04;;;;;;;12.25;2.17;;;;;;;;;;5114522;28;20095;-33
2024/01/01 12:16:30;;;;;;;10.18;2.08;;;;;;;;;;5114922;28;20019;-33
2024/01/01 12:19:02;;;;;;;14.95;3.38;;;;;;;;;;5114270;28;20023;-32
2024/01/01 12:21:37;;;;;;;12.00;2.15;;;;;;;;;;5114590;28;20024;-33
2024/01/01 12:24:03;;;;;;;15.45;2.75;;;;;;;;;;5114182;28;20030;-33
2024/01/01 12:26:29;;;;;;;18.70;2.33;;;;;;;;;;5114165;28;20020;-32
2024/01/01 12:29:10;;;;;;;16.23;2.58;;;;;;;;;;5114501;28;20095;-32
2024/01/01 12:31:36;;;;;;;12.57;2.25;;;;;;;;;;5114319;28;20102;-33
2024/01/01 12:34:01;;;;;;;15.73;2.70;;;;;;;;;;5114706;28;20050;-33
2024/01/01 12:36:26;;;;;;;15.23;2.70;;;;;;;;;;5114549;28;20031;-33
2024/01/01 12:38:51;;;;;;;15.57;2.93;;;;;;;;;;5114306;28;20415;-33
2024/01/01 12:41:18;;;;;;;16.13;2.67;;;;;;;;;;5114014;28;20245;-33
2024/01/01 12:43:43;;;;;;;9.77;2.45;;;;;;;;;;5113869;28;20265;-33
2024/01/01 12:46:08;;;;;;;21.33;2.72;;;;;;;;;;5114438;28;20026;-32
2024/01/01 12:48:34;;;;;;;15.60;2.73;;;;;;;;;;5113900;28;20023;-33
2024/01/01 12:50:59;;;;;;;12.50;2.20;;;;;;;;;;5113731;28;20254;-33
2024/01/01 12:53:25;;;;;;;18.10;2.70;;;;;;;;;;5113876;28;20382;-33
2024/01/01 12:55:50;;;;;;;15.13;2.10;;;;;;;;;;5114377;28;20024;-32
2024/01/01 12:58:15;;;;;;;19.93;3.10;;;;;;;;;;5113789;28;20753;-31
2024/01/01 13:00:40;;;;;;;16.37;2.53;;;;;;;;;;5113867;28;20273;-33
2024/01/01 13:03:06;;;;;;;11.60;2.00;;;;;;;;;;5113691;28;20297;-33
2024/01/01 13:05:31;;;;;;;7.90;1.92;;;;;;;;;;5113610;28;20295;-33
2024/01/01 13:07:56;;;;;;;14.50;2.10;;;;;;;;;;5113722;28;20027;-33
2024/01/01 13:10:22;;;;;;;13.00;2.37;;;;;;;;;;5114271;28;20320;-33
2024/01/01 13:12:47;;;;;;;13.82;1.77;;;;;;;;;;5116702;28;20287;-32
2024/01/01 13:15:13;;;;;;;18.63;2.17;;;;;;;;;;5118194;28;20047;-33
2024/01/01 13:17:38;;;;;;;11.82;2.38;;;;;;;;;;5118063;28;20024;-33
2024/01/01 13:20:04;;;;;;;12.43;2.20;;;;;;;;;;5117775;28;20355;-33
2024/01/01 13:22:29;;;;;;;10.45;2.35;;;;;;;;;;5118254;28;20026;-32
2024/01/01 13:24:55;;;;;;;16.88;2.50;;;;;;;;;;5117872;28;20517;-33
2024/01/01 13:27:20;;;;;;;14.65;2.10;;;;;;;;;;5117475;28;20046;-33
2024/01/01 13:29:45;;;;;;;11.30;2.20;;;;;;;;;;5117927;28;20019;-33
2024/01/01 13:32:10;;;;;;;15.20;2.70;;;;;;;;;;5117642;28;20012;-33
2024/01/01 13:34:36;;;;;;;14.60;2.37;;;;;;;;;;5117564;28;20518;-32
2024/01/01 13:37:01;;;;;;;13.70;2.40;;;;;;;;;;5117435;28;20269;-33
2024/01/01 13:39:26;;;;;;;16.80;3.00;;;;;;;;;;5117671;28;20283;-33
2024/01/01 13:41:51;;;;;;;19.30;2.10;;;;;;;;;;5117708;28;20413;-33
2024/01/01 13:44:16;;;;;;;19.10;2.85;;;;;;;;;;5117482;28;20027;-33
2024/01/01 13:46:42;;;;;;;12.07;2.53;;;;;;;;;;5117269;28;20315;-33
2024/01/01 13:49:07;;;;;;;16.87;2.63;;;;;;;;;;5117508;28;20249;-33
2024/01/01 13:51:32;;;;;;;17.17;2.70;;;;;;;;;;5117818;28;20724;-33
2024/01/01 13:53:59;;;;;;;16.63;2.72;;;;;;;;;;5117138;28;20571;-32
2024/01/01 13:56:24;;;;;;;17.67;3.08;;;;;;;;;;5117000;28;20027;-33
2024/01/01 13:58:49;;;;;;;13.73;3.10;;;;;;;;;;5117219;28;20031;-32
2024/01/01 14:01:15;;;;;;;14.50;2.75;;;;;;;;;;5116958;28;20317;-33
2024/01/01 14:03:40;;;;;;;17.03;2.23;;;;;;;;;;5116902;28;20386;-33
2024/01/01 14:06:06;;;;;;;10.60;2.50;;;;;;;;;;5117182;28;20300;-33
2024/01/01 14:08:31;;;;;;;15.82;3.05;;;;;;;;;;5116860;28;20094;-34
2024/01/01 14:10:57;;;;;;;14.02;2.95;;;;;;;;;;5116723;28;20119;-33
2024/01/01 14:13:23;;;;;;;18.20;3.00;;;;;;;;;;5116766;28;20012;-33
2024/01/01 14:15:48;;;;;;;13.13;2.95;;;;;;;;;;5117022;28;20102;-34
2024/01/01 14:18:14;;;;;;;18.13;2.47;;;;;;;;;;5116693;28;20043;-33
2024/01/01 14:20:39;;;;;;;10.67;2.10;;;;;;;;;;5116885;28;20027;-33
2024/01/01 14:23:04;;;;;;;12.50;2.35;;;;;;;;;;5116286;28;20578;-33